Главная страница
METAR-TAF:

METAR-TAF

Аэропорты :

Pocono Mountains Municipal Airport

Mount Pocono, Пенсильвания, США

широта: 41-08-20N, долгота: 075-23-46W, высота над уровнем моря: 584 м

Текущие метеонаблюдения

Эта сводка был подготовлена 55 минут назад, в 21:53 UTC
Ветер 5 Узел от юго-восточный
Температура -1°C
Влажность 80%
Давление 1022 hPa
Видимость: 16.1 км
Сплошная облачность на высоте 1500 фута

METAR: KMPO 182153Z AUTO 13005KT 10SM OVC015 M01/M04 A3019 RMK AO2 SLP246 T10061039

Время: 17:48 (22:48 UTC)


TAF: отсутствует

Метеонаблюдения и прогнозы для более 4000 аэропортов (сводки METAR и TAF).

Имеющиеся станции представлены на карте желтыми и красными точками.

Чтобы увидеть название станции, наведите на нее мышь.

Затем щелкните, чтобы увидеть метеонаблюдения и метеопрогнозы.

Управление картой: чтобы увеличить масштаб, щелкните зеленые кнопки с черным крестиком; чтобы уменьшить масштаб, щелкните зеленую кнопку с тире; для просмотра соседних карт щелкайте зеленые стрелки.


METAR-TAF: